M I D A S
Marine Information and Data Acquisition System
Tripno 523 of the Zeeleeuw from 2003-06-24 06:22:32 to 2003-06-24 11:27:24
Back to CruiseResearch ActivitiesStationsMapUnderway DataData graphs

EquipmentUnitsComment
TimeDGPSUTC
LatitudeDGPSDM.mWGS84
LongitudeDGPSDM.mWGS84
HeadingGyrodeg 
SOGDGPSknotsSpeed over ground
COGDGPSdegCourse over ground
DepthEcho soundermeters200 kHz
Missing or incorrect values are displayed as -999
Navigation data collected by the RV Zeeleeuw from 2003-06-24 06:22:32 to 2003-06-24 11:27:24
                                                                                    Next 1000 lines
Time Latitude Longitude Heading SOG COG Depth
2003-06-24 06:22:40 51°13.59 2°56.13 125   229 9
2003-06-24 06:22:44 51°13.59 2°56.13 124.7   202 9
2003-06-24 06:22:50 51°13.59 2°56.13 124.3 0.1 164 9
2003-06-24 06:22:56 51°13.59 2°56.13 123.7 0.1 124 9
2003-06-24 06:23:00 51°13.59 2°56.13 122.9   57 8.9
2003-06-24 06:23:06 51°13.59 2°56.13 121.9 0.1 82 8.9
2003-06-24 06:23:10 51°13.59 2°56.13 120.3 0.1 134 8.9
2003-06-24 06:23:16 51°13.59 2°56.13 118.8   192 9
2003-06-24 06:23:20 51°13.59 2°56.13 118.1   242 9
2003-06-24 06:23:24 51°13.59 2°56.13 117.3 0.1 203 8.9
2003-06-24 06:23:30 51°13.59 2°56.13 116.5 0.1 190 9
2003-06-24 06:23:36 51°13.59 2°56.13 115.8 0.1 196 8.9
2003-06-24 06:23:40 51°13.59 2°56.13 115.1 0.1 203 9
2003-06-24 06:23:46 51°13.59 2°56.13 114.3 0.1 201 9
2003-06-24 06:23:50 51°13.59 2°56.13 113.5 0.1 209 9
2003-06-24 06:23:56 51°13.59 2°56.13 112.8 0.1 187 9
2003-06-24 06:24:00 51°13.59 2°56.13 112.2   206 9.1
2003-06-24 06:24:04 51°13.59 2°56.13 111.8   305 9
2003-06-24 06:24:10 51°13.59 2°56.13 111.7 0.1 319 9.1
2003-06-24 06:24:16 51°13.59 2°56.13 111.7 0.2 310 9
2003-06-24 06:24:20 51°13.59 2°56.13 111.9 0.3 306 9.1
2003-06-24 06:24:24 51°13.59 2°56.13 112.2 0.6 298 9.1
2003-06-24 06:24:30 51°13.59 2°56.13 112.5 0.8 299 9.1
2003-06-24 06:24:36 51°13.59 2°56.13 112.8 1.1 296 9.2
2003-06-24 06:24:40 51°13.59 2°56.13 113.2 1.3 296 9.1
2003-06-24 06:24:46 51°13.59 2°56.12 113.4 1.5 294 -999
2003-06-24 06:24:52 51°13.59 2°56.12 113.7 1.7 294 -999
2003-06-24 06:24:56 51°13.59 2°56.11 113.8 1.8 292 -999
2003-06-24 06:25:02 51°13.59 2°56.11 113.9 2 294 -999
2003-06-24 06:25:08 51°13.59 2°56.1 113.9 2.2 292 -999
2003-06-24 06:25:12 51°13.6 2°56.1 113.7 2.3 293 -999
2003-06-24 06:25:18 51°13.6 2°56.09 113.3 2.5 292 -999
2003-06-24 06:25:24 51°13.6 2°56.09 112.7 2.7 292 -999
2003-06-24 06:25:28 51°13.6 2°56.08 112.3 2.8 290 -999
2003-06-24 06:25:34 51°13.6 2°56.08 111.8 2.9 290 -999
2003-06-24 06:25:38 51°13.6 2°56.07 111.6 3 288 -999
2003-06-24 06:25:44 51°13.6 2°56.06 111.6 3 289 -999
2003-06-24 06:25:48 51°13.6 2°56.06 111.7 3.1 288 -999
2003-06-24 06:25:54 51°13.61 2°56.05 112.2 3.1 288 -999
2003-06-24 06:26:00 51°13.61 2°56.04 112.9 3.2 288 -999
2003-06-24 06:26:04 51°13.61 2°56.04 113.9 3.3 288 -999
2003-06-24 06:26:10 51°13.61 2°56.03 114.3 3.4 290 -999
2003-06-24 06:26:16 51°13.61 2°56.02 114.8 3.5 289 -999
2003-06-24 06:26:20 51°13.62 2°56.01 115.3 3.6 290 -999
2003-06-24 06:26:26 51°13.62 2°56 116 3.7 291 -999
2003-06-24 06:26:30 51°13.62 2°56 116.6 3.8 292 -999
2003-06-24 06:26:36 51°13.62 2°55.99 117.5 3.9 292 -999
2003-06-24 06:26:40 51°13.62 2°55.98 118.3 3.9 293 -999
2003-06-24 06:26:46 51°13.62 2°55.97 119.1 4 294 -999
2003-06-24 06:26:50 51°13.63 2°55.97 119.7 4 295 -999
2003-06-24 06:26:56 51°13.63 2°55.96 120.6 4.1 296 -999
2003-06-24 06:27:00 51°13.63 2°55.95 121.5 4.1 296 -999
2003-06-24 06:27:06 51°13.63 2°55.94 122 4.1 297 -999
2003-06-24 06:27:10 51°13.64 2°55.93 122.3 4.1 297 -999
2003-06-24 06:27:16 51°13.64 2°55.92 122.4 4.1 298 -999
2003-06-24 06:27:20 51°13.64 2°55.92 122.5 4.1 298 -999
2003-06-24 06:27:24 51°13.64 2°55.91 122.5 4.1 298 -999
2003-06-24 06:27:30 51°13.65 2°55.9 122.4 4.1 298 -999
2003-06-24 06:27:36 51°13.65 2°55.89 122.4 4.1 298 -999
2003-06-24 06:27:40 51°13.65 2°55.89 122.4 4 298 -999
2003-06-24 06:27:46 51°13.66 2°55.88 122.8 4 298 -999
2003-06-24 06:27:50 51°13.66 2°55.87 123.3 4 298 -999
2003-06-24 06:27:56 51°13.66 2°55.86 123.6 4 298 -999
2003-06-24 06:28:00 51°13.66 2°55.85 123.7 4 298 -999
2003-06-24 06:28:06 51°13.67 2°55.84 124.1 4 298 -999
2003-06-24 06:28:10 51°13.67 2°55.84 124.7 4 299 -999
2003-06-24 06:28:16 51°13.67 2°55.83 125.9 4 300 -999
2003-06-24 06:28:20 51°13.67 2°55.82 127 4.2 302 -999
2003-06-24 06:28:26 51°13.68 2°55.81 128.4 4.3 304 -999
2003-06-24 06:28:30 51°13.68 2°55.81 130 4.2 305 11.1
2003-06-24 06:28:36 51°13.69 2°55.8 131.4 4.3 308 -999
2003-06-24 06:28:40 51°13.69 2°55.79 133.6 4.3 309 -999
2003-06-24 06:28:44 51°13.69 2°55.79 135.5 4.2 311 -999
2003-06-24 06:28:50 51°13.7 2°55.78 137.3 4.2 312 -999
2003-06-24 06:28:56 51°13.7 2°55.77 139.5 4.2 314 -999
2003-06-24 06:29:00 51°13.7 2°55.77 141.5 4.2 315 -999
2003-06-24 06:29:06 51°13.71 2°55.76 143.3 4.1 317 -999
2003-06-24 06:29:10 51°13.71 2°55.75 145 4 319 -999
2003-06-24 06:29:16 51°13.72 2°55.75 147.7 3.8 319 -999
2003-06-24 06:29:20 51°13.72 2°55.74 149.5 3.6 322 -999
2003-06-24 06:29:26 51°13.73 2°55.74 151.1 3.2 322 -999
2003-06-24 06:29:30 51°13.73 2°55.73 152.5 2.8 325 -999
2003-06-24 06:29:34 51°13.73 2°55.73 154.1 2.3 323 12.5
2003-06-24 06:29:40 51°13.73 2°55.73 156.3 1.9 327 12.3
2003-06-24 06:29:44 51°13.73 2°55.73 158.1 1.6 323 12.3
2003-06-24 06:29:48 51°13.73 2°55.73 160.1 1.2 322 12.4
2003-06-24 06:29:52 51°13.73 2°55.73 162.5 0.8 321 12.4
2003-06-24 06:29:56 51°13.74 2°55.72 165.9 0.6 301 12.4
2003-06-24 06:30:00 51°13.74 2°55.72 169.8 0.3 277 12.3
2003-06-24 06:30:06 51°13.73 2°55.72 174.1 0.4 220 12.2
2003-06-24 06:30:10 51°13.73 2°55.72 178.6 0.7 201 12.1
2003-06-24 06:30:16 51°13.73 2°55.72 183.2 0.8 199 12.1
2003-06-24 06:30:20 51°13.73 2°55.72 187.8 1 197 11.9
2003-06-24 06:30:26 51°13.73 2°55.72 192.2 1.2 198 11.8
2003-06-24 06:30:30 51°13.73 2°55.72 196.7 1.4 201 12.4
2003-06-24 06:30:36 51°13.73 2°55.72 201.3 1.5 201 12.6
2003-06-24 06:30:40 51°13.73 2°55.72 205.8 1.5 205 12.2
2003-06-24 06:30:44 51°13.72 2°55.72 209 1.4 207 12.6
2003-06-24 06:30:50 51°13.72 2°55.71 211.2 1.3 213 12.6
2003-06-24 06:30:56 51°13.72 2°55.71 212.8 1.2 212 12.6
2003-06-24 06:31:00 51°13.72 2°55.71 214.8 1 211 12.6
2003-06-24 06:31:04 51°13.72 2°55.71 216.9 0.6 220 12.5
2003-06-24 06:31:10 51°13.72 2°55.71 219 0.3 215 12.4
2003-06-24 06:31:16 51°13.72 2°55.71 220.8 0.1 243 12.4
2003-06-24 06:31:20 51°13.72 2°55.71 222.7 0.1 50 12.4
2003-06-24 06:31:26 51°13.72 2°55.71 224.5 0.4 36 12.5
2003-06-24 06:31:30 51°13.72 2°55.71 226.1 0.6 44 12.5
2003-06-24 06:31:36 51°13.72 2°55.71 227.3 0.8 42 12.5
2003-06-24 06:31:40 51°13.72 2°55.71 228.3 0.9 45 12.7
2003-06-24 06:31:46 51°13.72 2°55.71 229.2 1.1 44 -999
2003-06-24 06:31:52 51°13.72 2°55.72 229.8 1.3 45 -999
2003-06-24 06:31:56 51°13.72 2°55.72 230.8 1.4 45 -999
2003-06-24 06:32:02 51°13.73 2°55.72 231.6 1.4 43 -999
2003-06-24 06:32:08 51°13.73 2°55.72 232.3 1.3 44 -999
2003-06-24 06:32:12 51°13.73 2°55.73 232.9 1.3 42 -999
2003-06-24 06:32:18 51°13.73 2°55.73 233.5 1.1 41 -999
2003-06-24 06:32:24 51°13.73 2°55.73 234.4 0.8 33 -999
2003-06-24 06:32:28 51°13.73 2°55.73 235.7 0.6 31 -999
2003-06-24 06:32:34 51°13.73 2°55.73 237.2 0.3 346 -999
2003-06-24 06:32:38 51°13.73 2°55.73 239.5 0.3 274 4.7
2003-06-24 06:32:44 51°13.73 2°55.73 241.9 0.8 257 12.4
2003-06-24 06:32:48 51°13.73 2°55.72 244.9 1.1 252 12.2
2003-06-24 06:32:52 51°13.73 2°55.72 249 1.3 254 12.1
2003-06-24 06:32:56 51°13.73 2°55.72 253.8 1.6 253 -999
2003-06-24 06:33:02 51°13.73 2°55.71 259.8 1.9 256 -999
2003-06-24 06:33:06 51°13.73 2°55.71 264.9 1.9 258 12.5
2003-06-24 06:33:10 51°13.73 2°55.71 267.8 1.8 262 12.2
2003-06-24 06:33:16 51°13.73 2°55.7 270.1 1.7 264 12.4
2003-06-24 06:33:20 51°13.73 2°55.7 272.2 1.3 261 12.3
2003-06-24 06:33:26 51°13.73 2°55.7 275.2 0.7 269 12.5
2003-06-24 06:33:30 51°13.73 2°55.7 277.8 0.3 233 12.5
2003-06-24 06:33:36 51°13.73 2°55.7 280.4 0.1 118 12.5
2003-06-24 06:33:40 51°13.73 2°55.7 282.9 0.4 108 12.5
2003-06-24 06:33:44 51°13.73 2°55.7 285.4 0.8 107 12.4
2003-06-24 06:33:50 51°13.73 2°55.7 287.8 0.8 109 12.4
2003-06-24 06:33:56 51°13.73 2°55.71 289.6 0.8 108 -999
2003-06-24 06:34:02 51°13.73 2°55.71 291.6 0.7 107 -999
2003-06-24 06:34:08 51°13.73 2°55.71 293.1 0.4 107 -999
2003-06-24 06:34:12 51°13.73 2°55.71 294.8 0.2 106 -999
2003-06-24 06:34:18 51°13.73 2°55.71 296.8 0.2 305 12.1
2003-06-24 06:34:22 51°13.73 2°55.71 299.2 0.6 298 12.2
2003-06-24 06:34:26 51°13.73 2°55.71 303.5 0.9 303 4.7
2003-06-24 06:34:28 51°13.73 2°55.71 308.7 1.4 305 4.9
2003-06-24 06:34:36 51°13.73 2°55.7 314.3 1.7 309 -999
2003-06-24 06:34:42 51°13.73 2°55.7 320 2.2 313 -999
2003-06-24 06:34:46 51°13.73 2°55.69 323.9 2.6 319 -999
2003-06-24 06:34:52 51°13.74 2°55.69 326.6 3.1 321 12.7
2003-06-24 06:34:56 51°13.74 2°55.69 329.9 3.5 326 12.6
2003-06-24 06:35:00 51°13.75 2°55.68 333.1 3.8 328 12.4
2003-06-24 06:35:04 51°13.75 2°55.68 335.6 4.3 332 12.6
2003-06-24 06:35:10 51°13.76 2°55.67 336.7 4.6 332 12.5
2003-06-24 06:35:16 51°13.76 2°55.67 337.1 5 333 12.5
2003-06-24 06:35:20 51°13.77 2°55.66 337.2 5.2 333 12.7
2003-06-24 06:35:24 51°13.77 2°55.66 337.4 5.5 333 12.8
2003-06-24 06:35:30 51°13.78 2°55.65 337.5 5.8 333 12.4
2003-06-24 06:35:36 51°13.79 2°55.64 337.7 6 334 12.4
2003-06-24 06:35:40 51°13.8 2°55.64 338.3 6.2 334 12.6
2003-06-24 06:35:44 51°13.8 2°55.63 339.4 6.4 335 12.6
2003-06-24 06:35:50 51°13.81 2°55.63 340.2 6.6 336 12.5
2003-06-24 06:35:56 51°13.82 2°55.62 340.4 6.8 335 12.6
2003-06-24 06:36:00 51°13.83 2°55.61 340.4 6.9 335 12.4
2003-06-24 06:36:04 51°13.84 2°55.61 340.4 7.1 335 12.3
2003-06-24 06:36:10 51°13.85 2°55.6 340.6 7.2 336 12.1
2003-06-24 06:36:16 51°13.86 2°55.59 341.1 7.3 335 12.7
2003-06-24 06:36:20 51°13.87 2°55.59 341.3 7.4 336 12.6
2003-06-24 06:36:24 51°13.88 2°55.58 341.5 7.5 336 12.7
2003-06-24 06:36:32 51°13.89 2°55.57 342.3 7.6 338 12.7
2003-06-24 06:36:36 51°13.9 2°55.57 342.7 7.6 337 12.8
2003-06-24 06:36:40 51°13.91 2°55.56 343 7.6 338 12.9
2003-06-24 06:36:46 51°13.92 2°55.55 343 7.7 338 12.9
2003-06-24 06:36:50 51°13.93 2°55.55 343 7.7 338 12.9
2003-06-24 06:36:56 51°13.94 2°55.54 342.9 7.7 338 12.8
2003-06-24 06:37:00 51°13.95 2°55.54 343.3 7.7 339 12.7
2003-06-24 06:37:06 51°13.96 2°55.53 343.4 7.7 338 12.7
2003-06-24 06:37:10 51°13.97 2°55.52 342.6 7.7 337 12.7
2003-06-24 06:37:16 51°13.98 2°55.52 342.3 7.7 338 12.6
2003-06-24 06:37:20 51°13.99 2°55.51 342.3 7.7 338 12.6
2003-06-24 06:37:26 51°14 2°55.5 342.2 7.7 338 12.6
2003-06-24 06:37:30 51°14.01 2°55.5 341.8 7.7 337 12.6
2003-06-24 06:37:36 51°14.02 2°55.49 341.8 7.7 337 12.7
2003-06-24 06:37:40 51°14.03 2°55.48 342.3 7.7 337 12.6
2003-06-24 06:37:44 51°14.03 2°55.48 342.3 7.6 338 12.9
2003-06-24 06:37:50 51°14.04 2°55.47 341.6 7.6 337 12.6
2003-06-24 06:37:56 51°14.06 2°55.46 340.6 7.7 336 12.5
2003-06-24 06:38:00 51°14.06 2°55.46 340.3 7.7 336 12.3
2003-06-24 06:38:06 51°14.08 2°55.45 340.5 7.7 336 12.2
2003-06-24 06:38:08 51°14.08 2°55.45 340.7 7.6 336 12.5
2003-06-24 06:38:16 51°14.09 2°55.44 340.2 7.7 335 12.6
2003-06-24 06:38:20 51°14.1 2°55.43 339.6 7.7 335 12.6
2003-06-24 06:38:26 51°14.11 2°55.42 339.2 7.7 334 12.6
2003-06-24 06:38:30 51°14.12 2°55.41 338.4 7.7 334 12.6
2003-06-24 06:38:36 51°14.13 2°55.41 337.7 7.7 333 12.6
2003-06-24 06:38:40 51°14.14 2°55.4 336.8 7.7 332 12.6
2003-06-24 06:38:46 51°14.15 2°55.39 336 7.7 331 12.6
2003-06-24 06:38:50 51°14.16 2°55.38 335.3 7.7 330 12.6
2003-06-24 06:38:56 51°14.17 2°55.37 334.5 7.7 330 12.8
2003-06-24 06:39:00 51°14.18 2°55.37 333.3 7.7 328 12.8
2003-06-24 06:39:04 51°14.18 2°55.36 332 7.7 327 12.7
2003-06-24 06:39:10 51°14.19 2°55.35 330.2 7.7 325 12.7
2003-06-24 06:39:16 51°14.2 2°55.33 328.5 7.8 324 12.7
2003-06-24 06:39:20 51°14.21 2°55.33 326.9 7.9 322 12.8
2003-06-24 06:39:24 51°14.22 2°55.32 325.5 8 320 12.8
2003-06-24 06:39:32 51°14.23 2°55.3 324.2 8.1 319 12.7
2003-06-24 06:39:36 51°14.24 2°55.29 322.4 8.2 317 12.7
2003-06-24 06:39:40 51°14.25 2°55.28 320.6 8.2 316 12.7
2003-06-24 06:39:44 51°14.25 2°55.27 318.7 8.3 313 12.7
2003-06-24 06:39:50 51°14.26 2°55.25 317 8.3 313 12.6
2003-06-24 06:39:56 51°14.27 2°55.23 315.5 8.4 310 12.7
2003-06-24 06:40:00 51°14.28 2°55.22 314.7 8.5 310 12.6
2003-06-24 06:40:04 51°14.28 2°55.21 314.1 8.8 309 12.7
2003-06-24 06:40:10 51°14.29 2°55.19 313.6 9 309 12.7
2003-06-24 06:40:16 51°14.3 2°55.17 313.6 9.1 309 12.7
2003-06-24 06:40:20 51°14.31 2°55.16 313.6 9.2 309 12.5
2003-06-24 06:40:24 51°14.31 2°55.15 313.9 9.4 309 12.6
2003-06-24 06:40:30 51°14.32 2°55.13 313.9 9.5 309 12.6
2003-06-24 06:40:36 51°14.33 2°55.11 313.7 9.5 308 11.9
2003-06-24 06:40:40 51°14.34 2°55.09 314.2 9.6 309 11.7
2003-06-24 06:40:44 51°14.35 2°55.08 316.2 9.8 312 12.2
2003-06-24 06:40:50 51°14.36 2°55.06 320 10 315 12.2
2003-06-24 06:40:56 51°14.37 2°55.05 323.7 10.2 322 12
2003-06-24 06:41:00 51°14.38 2°55.04 327.8 10.3 326 12
2003-06-24 06:41:04 51°14.39 2°55.03 330.4 10.6 331 12
2003-06-24 06:41:10 51°14.41 2°55.01 331.5 10.8 331 11.9
2003-06-24 06:41:16 51°14.42 2°55 331.6 11 332 11.7
2003-06-24 06:41:20 51°14.43 2°54.99 330.4 11.1 330 11.6
2003-06-24 06:41:26 51°14.45 2°54.98 329.7 11.3 330 11.5
2003-06-24 06:41:30 51°14.46 2°54.96 328.5 11.3 328 11.4
2003-06-24 06:41:36 51°14.48 2°54.95 328 11.4 329 11.4
2003-06-24 06:41:40 51°14.49 2°54.94 328.5 11.5 327 11.2
2003-06-24 06:41:44 51°14.5 2°54.93 329.8 11.7 331 11.2
2003-06-24 06:41:52 51°14.52 2°54.91 330 11.7 329 11.1
2003-06-24 06:41:56 51°14.53 2°54.9 329.9 11.8 330 11.2
2003-06-24 06:42:00 51°14.54 2°54.89 329.5 11.8 329 11.1
2003-06-24 06:42:06 51°14.56 2°54.87 328.9 11.9 328 11.1
2003-06-24 06:42:12 51°14.58 2°54.85 328.7 12 329 11.1
2003-06-24 06:42:20 51°14.6 2°54.83 328.4 12 329 11.1
2003-06-24 06:42:30 51°14.63 2°54.8 328.7 12.1 328 11
2003-06-24 06:42:34 51°14.64 2°54.79 328.7 12 329 10.9
2003-06-24 06:42:40 51°14.66 2°54.78 328.7 12 328 10.9
2003-06-24 06:42:44 51°14.67 2°54.76 328.3 12 328 10.9
2003-06-24 06:42:50 51°14.69 2°54.75 328.4 12 328 10.9
2003-06-24 06:42:54 51°14.7 2°54.74 328.7 12 328 10.8
2003-06-24 06:43:00 51°14.71 2°54.72 328.5 12 328 10.9
2003-06-24 06:43:10 51°14.74 2°54.69 328.8 12.2 328 10.8
2003-06-24 06:43:14 51°14.75 2°54.68 328.8 12.2 328 10.8
2003-06-24 06:43:20 51°14.77 2°54.66 328.8 12.3 328 10.8
2003-06-24 06:43:24 51°14.78 2°54.65 328.7 12.2 328 10.8
2003-06-24 06:43:28 51°14.79 2°54.64 328.9 12.2 328 10.8
2003-06-24 06:43:42 51°14.84 2°54.6 329.2 12.5 329 10.9
2003-06-24 06:43:48 51°14.85 2°54.58 329.3 12.5 329 10.9
2003-06-24 06:43:52 51°14.87 2°54.57 329.2 12.5 328 10.9
2003-06-24 06:43:56 51°14.88 2°54.56 329.2 12.6 328 10.8
2003-06-24 06:44:02 51°14.89 2°54.54 328.9 12.6 328 10.7
2003-06-24 06:44:08 51°14.91 2°54.52 328.8 12.7 328 10.6
2003-06-24 06:44:12 51°14.92 2°54.51 328.7 12.7 328 10.6
2003-06-24 06:44:16 51°14.94 2°54.5 328.7 12.7 328 10.6
2003-06-24 06:44:20 51°14.95 2°54.49 328.7 12.8 327 10.4
2003-06-24 06:44:24 51°14.96 2°54.48 328.6 12.9 327 10.3
2003-06-24 06:44:32 51°14.98 2°54.45 328.5 12.9 327 10.2
2003-06-24 06:44:36 51°15 2°54.44 328.7 13 328 10.2
2003-06-24 06:44:42 51°15.01 2°54.42 329 13 328 10.1
2003-06-24 06:44:48 51°15.03 2°54.4 329.5 13 329 10.1
2003-06-24 06:44:52 51°15.04 2°54.39 329.5 13.1 328 10.1
2003-06-24 06:44:56 51°15.06 2°54.38 329.5 13.1 328 10.1
2003-06-24 06:45:02 51°15.08 2°54.36 329.4 13.1 328 10.3
2003-06-24 06:45:06 51°15.09 2°54.35 328.9 13.2 328 10.2
2003-06-24 06:45:12 51°15.11 2°54.33 328.8 13.2 327 10.3
2003-06-24 06:45:16 51°15.12 2°54.32 328.8 13.3 327 10.5
2003-06-24 06:45:22 51°15.14 2°54.3 328.8 13.3 327 10.3
2003-06-24 06:45:28 51°15.16 2°54.28 328.7 13.4 327 10.4
2003-06-24 06:45:32 51°15.17 2°54.26 329.3 13.4 328 10.4
2003-06-24 06:45:36 51°15.18 2°54.25 329.3 13.4 328 10.5
2003-06-24 06:45:42 51°15.2 2°54.23 329.1 13.4 328 10.5
2003-06-24 06:45:48 51°15.22 2°54.21 328.9 13.5 327 10.6
2003-06-24 06:45:52 51°15.23 2°54.2 328.7 13.5 327 10.7
2003-06-24 06:46:00 51°15.26 2°54.17 328.6 13.5 327 10.8
2003-06-24 06:46:08 51°15.28 2°54.15 329 13.5 328 10.7
2003-06-24 06:46:12 51°15.3 2°54.14 329.4 13.5 328 10.8
2003-06-24 06:46:16 51°15.31 2°54.12 329.6 13.5 328 11
2003-06-24 06:46:20 51°15.32 2°54.11 329.5 13.5 328 11
2003-06-24 06:46:30 51°15.35 2°54.08 329.3 13.5 327 11.2
2003-06-24 06:46:36 51°15.37 2°54.06 329 13.5 326 11.2
2003-06-24 06:46:40 51°15.38 2°54.05 328.7 13.5 326 11.3
2003-06-24 06:46:44 51°15.4 2°54.03 328.4 13.5 326 11.3
2003-06-24 06:46:48 51°15.41 2°54.02 328.4 13.5 326 11.4
2003-06-24 06:47:02 51°15.45 2°53.97 329.2 13.5 327 11.6
2003-06-24 06:47:08 51°15.47 2°53.95 329.5 13.5 327 11.5
2003-06-24 06:47:12 51°15.49 2°53.94 329.6 13.5 327 11.6
2003-06-24 06:47:16 51°15.5 2°53.93 329.5 13.5 327 11.7
2003-06-24 06:47:20 51°15.51 2°53.91 329.5 13.6 327 11.8
2003-06-24 06:47:28 51°15.54 2°53.89 329.3 13.6 327 11.9
2003-06-24 06:47:32 51°15.55 2°53.87 329 13.6 327 12
2003-06-24 06:47:36 51°15.56 2°53.86 328.9 13.6 326 12.1
2003-06-24 06:47:40 51°15.57 2°53.85 329.1 13.6 327 12.1
2003-06-24 06:47:50 51°15.61 2°53.82 329.5 13.6 328 12.2
2003-06-24 06:47:56 51°15.62 2°53.8 330.6 13.7 330 12.3
2003-06-24 06:48:00 51°15.64 2°53.79 332.2 13.7 331 12.4
2003-06-24 06:48:04 51°15.65 2°53.78 333.3 13.7 331 12.4
2003-06-24 06:48:08 51°15.67 2°53.76 333.9 13.7 332 12.5
2003-06-24 06:48:16 51°15.69 2°53.74 334.5 13.7 333 12.5
2003-06-24 06:48:20 51°15.71 2°53.73 334.8 13.7 333 12.6
2003-06-24 06:48:24 51°15.72 2°53.72 334.8 13.7 333 12.7
2003-06-24 06:48:28 51°15.73 2°53.71 334.6 13.7 333 12.7
2003-06-24 06:48:40 51°15.77 2°53.67 334.4 13.7 333 12.9
2003-06-24 06:48:50 51°15.81 2°53.65 334.5 13.7 333 13
2003-06-24 06:48:54 51°15.82 2°53.64 334.5 13.8 333 13
2003-06-24 06:49:00 51°15.84 2°53.62 334.6 13.8 333 13
2003-06-24 06:49:04 51°15.85 2°53.61 334.6 13.8 333 13
2003-06-24 06:49:10 51°15.88 2°53.59 334.6 13.8 333 13.1
2003-06-24 06:49:16 51°15.9 2°53.57 334.5 13.8 332 13.1
2003-06-24 06:49:20 51°15.91 2°53.56 334.3 13.7 332 13.3
2003-06-24 06:49:24 51°15.92 2°53.55 334.1 13.8 332 13.3
2003-06-24 06:49:28 51°15.94 2°53.54 334.4 13.8 333 13.3
2003-06-24 06:49:36 51°15.96 2°53.52 334.7 13.8 333 13.3
2003-06-24 06:49:40 51°15.98 2°53.51 334.7 13.8 333 13.3
2003-06-24 06:49:44 51°15.99 2°53.5 334.2 13.8 332 13.3
2003-06-24 06:49:48 51°16 2°53.49 334.1 13.7 333 13.4
2003-06-24 06:50:00 51°16.04 2°53.45 334.6 13.7 333 13.5
2003-06-24 06:50:08 51°16.07 2°53.43 334.5 13.7 332 13.5
2003-06-24 06:50:12 51°16.09 2°53.42 334.3 13.7 332 13.5
2003-06-24 06:50:16 51°16.1 2°53.41 334.2 13.7 332 13.4
2003-06-24 06:50:20 51°16.11 2°53.4 334.2 13.7 332 13.5
2003-06-24 06:50:28 51°16.14 2°53.37 334.5 13.7 332 13.5
2003-06-24 06:50:32 51°16.15 2°53.36 334.5 13.7 332 13.5
2003-06-24 06:50:36 51°16.17 2°53.35 334.6 13.7 333 13.6
2003-06-24 06:50:42 51°16.19 2°53.33 334.6 13.7 332 13.7
2003-06-24 06:50:48 51°16.21 2°53.32 334.6 13.7 332 13.7
2003-06-24 06:50:52 51°16.22 2°53.31 334.6 13.7 333 13.7
2003-06-24 06:51:02 51°16.25 2°53.28 334.7 13.7 332 13.8
2003-06-24 06:51:08 51°16.27 2°53.26 334.7 13.7 332 13.9
2003-06-24 06:51:12 51°16.29 2°53.25 334.6 13.6 332 13.8
2003-06-24 06:51:16 51°16.3 2°53.24 334.4 13.6 332 13.8
2003-06-24 06:51:20 51°16.31 2°53.23 334.4 13.6 332 13.8
2003-06-24 06:51:24 51°16.33 2°53.22 334.4 13.6 332 13.9
2003-06-24 06:51:32 51°16.35 2°53.19 334.4 13.6 332 13.9
2003-06-24 06:51:36 51°16.37 2°53.18 334.3 13.6 332 13.9
2003-06-24 06:51:40 51°16.38 2°53.17 334 13.6 332 13.9
2003-06-24 06:51:50 51°16.41 2°53.14 334.3 13.6 332 13.9
2003-06-24 06:51:56 51°16.43 2°53.13 334.3 13.6 332 13.8
2003-06-24 06:52:00 51°16.45 2°53.11 334.3 13.6 332 13.8
2003-06-24 06:52:04 51°16.46 2°53.1 334.2 13.6 332 13.8
2003-06-24 06:52:08 51°16.47 2°53.09 334.3 13.5 332 13.8
2003-06-24 06:52:16 51°16.5 2°53.07 334.5 13.5 332 13.7
2003-06-24 06:52:20 51°16.51 2°53.06 334.5 13.4 332 13.6
2003-06-24 06:52:24 51°16.53 2°53.05 334.5 13.4 332 13.5
2003-06-24 06:52:28 51°16.54 2°53.04 334.4 13.4 332 13.4
2003-06-24 06:52:36 51°16.57 2°53.01 334.4 13.4 332 13.4
2003-06-24 06:52:40 51°16.58 2°53 334.5 13.4 332 13.3
2003-06-24 06:52:44 51°16.59 2°52.99 334.8 13.4 333 13.3
2003-06-24 06:52:50 51°16.61 2°52.98 335.2 13.4 333 13.1
2003-06-24 06:52:54 51°16.62 2°52.96 335.3 13.3 332 13.1
2003-06-24 06:53:00 51°16.64 2°52.95 335.1 13.3 332 13.1
2003-06-24 06:53:04 51°16.66 2°52.94 335 13.3 332 12.9
2003-06-24 06:53:10 51°16.68 2°52.92 334.8 13.3 332 12.8
2003-06-24 06:53:12 51°16.68 2°52.91 334.6 13.3 332 12.9
2003-06-24 06:53:20 51°16.71 2°52.89 334.4 13.3 332 12.6
2003-06-24 06:53:24 51°16.72 2°52.88 334.6 13.3 332 12.4
2003-06-24 06:53:28 51°16.74 2°52.87 334.6 13.3 332 12.3
2003-06-24 06:53:36 51°16.76 2°52.85 334.3 13.3 332 11.9
2003-06-24 06:53:40 51°16.77 2°52.84 334 13.3 331 11.5
2003-06-24 06:53:44 51°16.79 2°52.83 334 13.3 332 11.2
2003-06-24 06:53:48 51°16.8 2°52.81 333.8 13.3 331 11.1
2003-06-24 06:54:00 51°16.84 2°52.78 334.3 13.3 332 11.2
2003-06-24 06:54:08 51°16.86 2°52.76 334.5 13.3 332 10.9
2003-06-24 06:54:12 51°16.88 2°52.75 334.4 13.3 331 11
2003-06-24 06:54:16 51°16.89 2°52.74 334.1 13.4 331 11
2003-06-24 06:54:20 51°16.9 2°52.72 333.9 13.3 331 10.9
2003-06-24 06:54:24 51°16.92 2°52.71 334.2 13.4 332 11.2
2003-06-24 06:54:32 51°16.94 2°52.69 334.5 13.4 332 11.2
2003-06-24 06:54:36 51°16.96 2°52.68 335 13.4 332 11.3
2003-06-24 06:54:42 51°16.98 2°52.66 335.2 13.5 333 11.6
2003-06-24 06:54:48 51°17 2°52.65 335.8 13.5 335 11.9
2003-06-24 06:54:52 51°17.01 2°52.64 338.8 13.5 338 11.9
2003-06-24 06:54:56 51°17.02 2°52.63 342.9 13.5 341 11.8
2003-06-24 06:55:02 51°17.05 2°52.62 347.6 13.5 345 11.5
2003-06-24 06:55:08 51°17.07 2°52.62 351.1 13.5 350 11.4
2003-06-24 06:55:12 51°17.08 2°52.61 353.4 13.6 352 11.3
2003-06-24 06:55:16 51°17.1 2°52.61 355.6 13.5 353 11.3
2003-06-24 06:55:20 51°17.11 2°52.61 356.5 13.6 354 11.1
2003-06-24 06:55:24 51°17.13 2°52.61 357.6 13.6 355 11.3
2003-06-24 06:55:32 51°17.16 2°52.6 358.2 13.7 356 11.4
2003-06-24 06:55:36 51°17.17 2°52.6 358.8 13.7 356 11.2
2003-06-24 06:55:40 51°17.19 2°52.6 359.2 13.7 356 11.4
2003-06-24 06:55:50 51°17.23 2°52.6 359.2 13.7 356 11.3
2003-06-24 06:55:56 51°17.25 2°52.59 358.8 13.7 355 11.4
2003-06-24 06:56:00 51°17.26 2°52.59 358.5 13.8 356 11.6
2003-06-24 06:56:04 51°17.28 2°52.59 358.4 13.7 355 11.7
2003-06-24 06:56:08 51°17.29 2°52.59 358.5 13.8 356 11.4
2003-06-24 06:56:22 51°17.35 2°52.58 358.6 13.7 355 11.6
2003-06-24 06:56:28 51°17.37 2°52.58 358.5 13.7 355 11.8
2003-06-24 06:56:32 51°17.39 2°52.57 358.3 13.7 355 11.8
2003-06-24 06:56:36 51°17.4 2°52.57 358.9 13.8 356 11.8
2003-06-24 06:56:40 51°17.42 2°52.57 359.1 13.8 356 11.8
2003-06-24 06:56:48 51°17.45 2°52.57 359.2 13.8 357 12
2003-06-24 06:56:52 51°17.46 2°52.57 359.2 13.8 356 12.1
2003-06-24 06:56:56 51°17.48 2°52.57 359.3 13.8 357 11.8
2003-06-24 06:57:00 51°17.49 2°52.56 359.2 13.8 357 11.9
2003-06-24 06:57:08 51°17.52 2°52.56 359.2 13.9 356 11.8
2003-06-24 06:57:12 51°17.54 2°52.56 359 13.9 356 11.7
2003-06-24 06:57:16 51°17.55 2°52.56 359 13.8 356 12.1
2003-06-24 06:57:22 51°17.58 2°52.55 358.7 13.8 356 11.9
2003-06-24 06:57:28 51°17.6 2°52.55 359.2 13.9 357 12.2
2003-06-24 06:57:32 51°17.61 2°52.55 359.1 13.9 356 12.2
2003-06-24 06:57:36 51°17.63 2°52.55 358.6 13.8 356 11.9
2003-06-24 06:57:42 51°17.65 2°52.55 358.9 13.8 355 12.1
2003-06-24 06:57:48 51°17.68 2°52.54 358.7 13.8 356 11.8
2003-06-24 06:57:52 51°17.69 2°52.54 358.8 13.8 356 12.1
2003-06-24 06:58:00 51°17.72 2°52.54 359 13.8 357 12
2003-06-24 06:58:08 51°17.75 2°52.54 358.9 13.8 356 11.9
2003-06-24 06:58:12 51°17.77 2°52.53 359 13.8 356 12
2003-06-24 06:58:16 51°17.78 2°52.53 359.2 13.9 356 11.8
2003-06-24 06:58:20 51°17.8 2°52.53 359.2 13.8 356 12.2
2003-06-24 06:58:24 51°17.81 2°52.53 359.4 13.8 356 12.1
2003-06-24 06:58:32 51°17.84 2°52.53 359.1 13.9 356 12.1
2003-06-24 06:58:36 51°17.86 2°52.52 359.3 13.9 357 12.1
2003-06-24 06:58:42 51°17.88 2°52.52 359.4 13.9 356 11.9
2003-06-24 06:58:48 51°17.91 2°52.52 359.3 13.9 356 12.3
2003-06-24 06:58:52 51°17.92 2°52.52 359.2 13.9 357 12.3
2003-06-24 06:58:56 51°17.94 2°52.52 359.2 13.9 356 12.1
2003-06-24 06:59:02 51°17.96 2°52.51 359.4 13.9 357 12.4
2003-06-24 06:59:08 51°17.98 2°52.51 359.2 13.9 357 12.2
2003-06-24 06:59:12 51°18 2°52.51 359.5 13.9 357 12.3
2003-06-24 06:59:20 51°18.03 2°52.51 359.7 13.9 357 12.4
2003-06-24 06:59:24 51°18.04 2°52.51 359.5 13.9 357 12.3
2003-06-24 06:59:32 51°18.08 2°52.5 359.8 14 357 12.4
2003-06-24 06:59:36 51°18.09 2°52.5 359.3 13.9 356 12.4
2003-06-24 06:59:40 51°18.11 2°52.5 359.5 13.9 357 12.4
2003-06-24 06:59:50 51°18.14 2°52.5 359.2 13.9 356 12.5
2003-06-24 06:59:56 51°18.17 2°52.5 359 13.9 356 12.5
2003-06-24 07:00:00 51°18.18 2°52.49 358.4 13.9 356 12.6
2003-06-24 07:00:04 51°18.2 2°52.49 358.9 13.8 357 12.5
2003-06-24 07:00:10 51°18.22 2°52.49 359.6 13.9 358 12.6
2003-06-24 07:00:16 51°18.24 2°52.49 1.4 13.9 1 12.6
2003-06-24 07:00:20 51°18.26 2°52.49 4.4 13.9 3 12.6
2003-06-24 07:00:24 51°18.28 2°52.5 7.5 13.9 6 12.7
2003-06-24 07:00:30 51°18.3 2°52.5 10.6 13.9 9 12.7
2003-06-24 07:00:36 51°18.32 2°52.51 14.6 13.9 15 12.8
2003-06-24 07:00:40 51°18.34 2°52.52 17.8 14 17 12.7
2003-06-24 07:00:44 51°18.35 2°52.53 22.4 14 21 12.8
2003-06-24 07:00:50 51°18.37 2°52.54 28 13.9 28 12.9
2003-06-24 07:00:56 51°18.39 2°52.57 34.3 13.9 36 12.9
2003-06-24 07:01:00 51°18.4 2°52.58 40.8 13.8 41 12.9
2003-06-24 07:01:04 51°18.41 2°52.6 46.9 13.9 46 12.8
2003-06-24 07:01:10 51°18.43 2°52.63 53.1 13.9 52 12.9
2003-06-24 07:01:16 51°18.44 2°52.66 59.5 14 60 12.9
2003-06-24 07:01:20 51°18.45 2°52.68 64.3 14.2 62 12.9
2003-06-24 07:01:24 51°18.45 2°52.7 67.5 14.2 65 12.9
2003-06-24 07:01:30 51°18.46 2°52.74 68.9 14.1 65 13
2003-06-24 07:01:36 51°18.47 2°52.77 70.5 14.2 67 13.1
2003-06-24 07:01:40 51°18.48 2°52.8 70.7 14.3 66 13
2003-06-24 07:01:50 51°18.49 2°52.85 68.3 14.4 64 13
2003-06-24 07:01:56 51°18.5 2°52.89 68.7 14.4 66 13
2003-06-24 07:02:00 51°18.51 2°52.91 69 14.5 65 13.1
2003-06-24 07:02:10 51°18.53 2°52.97 69.1 14.5 66 13.1
2003-06-24 07:02:14 51°18.53 2°52.99 69 14.5 65 13
2003-06-24 07:02:20 51°18.54 2°53.03 68.9 14.5 66 13
2003-06-24 07:02:24 51°18.55 2°53.05 68.2 14.6 64 13
2003-06-24 07:02:30 51°18.56 2°53.09 68.2 14.6 65 13
2003-06-24 07:02:36 51°18.57 2°53.12 68.2 14.5 64 13
2003-06-24 07:02:40 51°18.58 2°53.14 68.6 14.6 65 13
2003-06-24 07:02:50 51°18.6 2°53.2 68.6 14.5 65 13
2003-06-24 07:02:56 51°18.61 2°53.24 68.6 14.5 65 13
2003-06-24 07:03:00 51°18.61 2°53.26 68.8 14.5 65 13
2003-06-24 07:03:04 51°18.62 2°53.28 69 14.5 65 13.1
2003-06-24 07:03:10 51°18.63 2°53.32 68.8 14.6 65 13
2003-06-24 07:03:14 51°18.64 2°53.34 68.3 14.5 65 13.1
2003-06-24 07:03:20 51°18.65 2°53.38 69 14.4 65 13.2
2003-06-24 07:03:30 51°18.66 2°53.44 69.8 14.5 66 13.1
2003-06-24 07:03:36 51°18.67 2°53.47 69.1 14.6 65 13
2003-06-24 07:03:40 51°18.68 2°53.49 69.5 14.6 66 13.1
2003-06-24 07:03:44 51°18.69 2°53.52 69.2 14.5 65 13.1
2003-06-24 07:03:50 51°18.7 2°53.55 69.1 14.5 65 13.1
2003-06-24 07:03:56 51°18.71 2°53.59 68.9 14.6 65 13.1
2003-06-24 07:04:00 51°18.72 2°53.61 68.8 14.7 65 13.1
2003-06-24 07:04:04 51°18.72 2°53.63 68.8 14.7 65 13.1
2003-06-24 07:04:10 51°18.73 2°53.67 68.3 14.6 64 13.1
2003-06-24 07:04:14 51°18.74 2°53.69 68.3 14.5 65 13.2
2003-06-24 07:04:20 51°18.75 2°53.73 68.5 14.6 64 13.1
2003-06-24 07:04:30 51°18.77 2°53.79 68.3 14.7 64 13.1
2003-06-24 07:04:36 51°18.78 2°53.82 68.6 14.7 64 13.1
2003-06-24 07:04:40 51°18.79 2°53.84 69.5 14.6 66 13.1
2003-06-24 07:04:44 51°18.79 2°53.87 69 14.5 65 13.1
2003-06-24 07:04:50 51°18.8 2°53.9 68.8 14.5 65 13.1
2003-06-24 07:04:56 51°18.81 2°53.94 68.7 14.6 64 13.1
2003-06-24 07:05:00 51°18.82 2°53.96 68.7 14.7 65 13
2003-06-24 07:05:04 51°18.83 2°53.98 69 14.7 65 13.1
2003-06-24 07:05:10 51°18.84 2°54.02 69.7 14.8 66 13.1
2003-06-24 07:05:16 51°18.85 2°54.06 69.2 14.6 64 13.1
2003-06-24 07:05:20 51°18.85 2°54.08 68.9 14.6 65 13
2003-06-24 07:05:24 51°18.86 2°54.1 68.8 14.6 65 13.1
2003-06-24 07:05:30 51°18.87 2°54.14 69.6 14.7 66 13
2003-06-24 07:05:34 51°18.88 2°54.16 69.4 14.7 65 13.1
2003-06-24 07:05:40 51°18.89 2°54.2 69.1 14.7 65 13.2
2003-06-24 07:05:50 51°18.91 2°54.25 69.3 14.5 65 13.1
2003-06-24 07:05:56 51°18.92 2°54.29 70.2 14.7 66 13.1
2003-06-24 07:06:00 51°18.92 2°54.31 69.9 14.9 65 13.1
2003-06-24 07:06:04 51°18.93 2°54.34 69.6 14.8 65 13.1
2003-06-24 07:06:10 51°18.94 2°54.37 69.3 14.7 65 13.1
2003-06-24 07:06:16 51°18.95 2°54.41 69.6 14.6 65 13.1
2003-06-24 07:06:20 51°18.96 2°54.43 69.6 14.6 65 13.1
2003-06-24 07:06:30 51°18.97 2°54.49 68.9 14.8 64 13.1
2003-06-24 07:06:36 51°18.98 2°54.53 68.7 14.7 65 13
2003-06-24 07:06:40 51°18.99 2°54.55 69.2 14.6 65 13.1
2003-06-24 07:06:44 51°19 2°54.57 69.1 14.7 65 13.1
2003-06-24 07:06:50 51°19.01 2°54.61 69.2 14.8 65 13.1
2003-06-24 07:06:56 51°19.02 2°54.64 69.3 14.7 65 13
2003-06-24 07:07:00 51°19.03 2°54.67 69.6 14.7 65 13.1
2003-06-24 07:07:04 51°19.03 2°54.69 69.7 14.8 65 13.1
2003-06-24 07:07:10 51°19.04 2°54.73 69.2 14.8 64 13
2003-06-24 07:07:16 51°19.05 2°54.76 68.7 14.7 64 13
2003-06-24 07:07:20 51°19.06 2°54.79 68.3 14.7 64 13.2
2003-06-24 07:07:30 51°19.08 2°54.84 69.2 14.7 65 13.1
2003-06-24 07:07:34 51°19.08 2°54.87 69.4 14.8 65 13.1
2003-06-24 07:07:40 51°19.1 2°54.9 68.5 14.9 64 13.1
2003-06-24 07:07:44 51°19.1 2°54.93 68.2 14.8 64 13.1
2003-06-24 07:07:50 51°19.11 2°54.96 68.7 14.8 65 13.1
2003-06-24 07:07:54 51°19.12 2°54.99 68.9 14.8 65 13.1
2003-06-24 07:08:00 51°19.13 2°55.02 69.4 14.8 66 13.1
2003-06-24 07:08:10 51°19.15 2°55.08 69.4 14.8 65 13.1
2003-06-24 07:08:12 51°19.15 2°55.09 68.9 14.7 64 13.1
2003-06-24 07:08:20 51°19.17 2°55.14 69.5 14.8 66 13.2
2003-06-24 07:08:24 51°19.17 2°55.16 69.3 14.9 64 13.1
2003-06-24 07:08:30 51°19.18 2°55.2 68.9 14.8 65 13.2
2003-06-24 07:08:36 51°19.19 2°55.24 68.9 14.8 65 13.1
2003-06-24 07:08:40 51°19.2 2°55.26 69.8 14.7 66 13.2
2003-06-24 07:08:44 51°19.21 2°55.28 70 14.7 65 13.2
2003-06-24 07:08:50 51°19.22 2°55.32 69.9 14.8 65 13.2
2003-06-24 07:08:56 51°19.23 2°55.35 69.6 14.8 65 13.1
2003-06-24 07:09:00 51°19.23 2°55.38 69.3 14.8 65 13.1
2003-06-24 07:09:10 51°19.25 2°55.44 69 14.7 65 13.1
2003-06-24 07:09:14 51°19.26 2°55.46 69.2 14.8 65 13.1
2003-06-24 07:09:20 51°19.27 2°55.5 68.8 14.8 64 13.1
2003-06-24 07:09:24 51°19.28 2°55.52 68.6 14.8 64 13.1
2003-06-24 07:09:30 51°19.29 2°55.56 69.5 14.7 66 13.2
2003-06-24 07:09:36 51°19.3 2°55.59 69.8 14.7 65 13.1
2003-06-24 07:09:40 51°19.3 2°55.62 69.6 14.8 65 13.1
2003-06-24 07:09:50 51°19.32 2°55.68 69.3 14.9 65 13.1
2003-06-24 07:09:56 51°19.33 2°55.71 69.4 14.8 64 13.1
2003-06-24 07:10:00 51°19.34 2°55.73 69.3 14.7 65 13.1
2003-06-24 07:10:04 51°19.35 2°55.76 69.6 14.8 65 13.1
2003-06-24 07:10:10 51°19.36 2°55.79 69.3 14.8 65 13.1
2003-06-24 07:10:14 51°19.36 2°55.82 69.1 14.8 64 13.1
2003-06-24 07:10:20 51°19.37 2°55.85 69.1 14.8 65 13.1
2003-06-24 07:10:24 51°19.38 2°55.88 69 14.8 65 13.1
2003-06-24 07:10:30 51°19.39 2°55.91 68.6 14.9 65 13.1
2003-06-24 07:10:36 51°19.4 2°55.95 68.6 14.8 64 13
2003-06-24 07:10:40 51°19.41 2°55.97 69.2 14.7 66 13
2003-06-24 07:10:44 51°19.42 2°56 69.5 14.8 65 13
2003-06-24 07:10:50 51°19.43 2°56.03 69.5 14.9 65 13.1
2003-06-24 07:10:56 51°19.44 2°56.07 69.8 14.8 66 13.1
2003-06-24 07:11:00 51°19.44 2°56.09 69.7 14.9 65 13.1
2003-06-24 07:11:04 51°19.45 2°56.12 69.1 14.9 65 13
2003-06-24 07:11:10 51°19.46 2°56.15 69.1 14.7 65 13
2003-06-24 07:11:14 51°19.47 2°56.17 69.2 14.7 65 13
2003-06-24 07:11:20 51°19.48 2°56.21 69.1 14.8 65 13
2003-06-24 07:11:30 51°19.5 2°56.27 69.3 14.9 65 12.9
2003-06-24 07:11:36 51°19.51 2°56.31 68.9 14.7 65 13
2003-06-24 07:11:40 51°19.51 2°56.33 69.5 14.8 65 13
2003-06-24 07:11:44 51°19.52 2°56.35 68.9 14.9 64 13
2003-06-24 07:11:50 51°19.53 2°56.39 69 14.9 65 13
2003-06-24 07:11:56 51°19.54 2°56.42 69.2 14.8 65 13
2003-06-24 07:12:00 51°19.55 2°56.45 69.4 14.8 65 12.9
2003-06-24 07:12:10 51°19.56 2°56.51 68.9 14.8 65 12.9
2003-06-24 07:12:16 51°19.58 2°56.54 69.2 14.9 65 12.9
2003-06-24 07:12:20 51°19.58 2°56.57 68.7 14.8 64 13
2003-06-24 07:12:24 51°19.59 2°56.59 68.9 14.7 65 12.8
2003-06-24 07:12:30 51°19.6 2°56.63 69.1 14.9 65 12.8
2003-06-24 07:12:36 51°19.61 2°56.66 69 14.9 65 13
2003-06-24 07:12:40 51°19.62 2°56.69 69.2 14.8 65 12.9
2003-06-24 07:12:50 51°19.63 2°56.75 69.8 14.9 66 12.9
2003-06-24 07:12:54 51°19.64 2°56.77 69.7 15 65 12.9
2003-06-24 07:13:00 51°19.65 2°56.81 70.1 15 66 12.9
2003-06-24 07:13:10 51°19.67 2°56.87 69.3 14.8 65 12.9
2003-06-24 07:13:16 51°19.68 2°56.9 68.9 14.8 65 12.8
2003-06-24 07:13:20 51°19.69 2°56.93 69.3 14.9 65 12.7
2003-06-24 07:13:24 51°19.69 2°56.95 69.3 14.9 65 12.8
2003-06-24 07:13:30 51°19.7 2°56.99 69.6 14.9 65 12.8
2003-06-24 07:13:36 51°19.71 2°57.02 69.4 14.9 65 12.8
2003-06-24 07:13:40 51°19.72 2°57.04 69.4 14.9 65 12.8
2003-06-24 07:13:50 51°19.74 2°57.1 69.1 14.8 65 12.8
2003-06-24 07:13:54 51°19.75 2°57.13 69 14.8 64 12.8
2003-06-24 07:14:00 51°19.76 2°57.16 68.8 14.8 65 12.8
2003-06-24 07:14:04 51°19.76 2°57.19 68.9 14.8 65 12.8
2003-06-24 07:14:10 51°19.77 2°57.22 68.9 14.8 65 12.7
2003-06-24 07:14:16 51°19.78 2°57.26 69.5 14.8 66 12.7
2003-06-24 07:14:20 51°19.79 2°57.28 69.5 14.8 65 12.7
2003-06-24 07:14:30 51°19.81 2°57.34 69.2 14.8 65 12.7
2003-06-24 07:14:36 51°19.82 2°57.38 69.4 14.8 66 12.8
2003-06-24 07:14:40 51°19.83 2°57.4 68.9 14.8 64 12.8
2003-06-24 07:14:44 51°19.83 2°57.43 68.9 14.8 65 12.8
2003-06-24 07:14:50 51°19.84 2°57.46 69.4 14.8 65 12.7
2003-06-24 07:14:54 51°19.85 2°57.48 69.4 14.8 65 12.7
2003-06-24 07:15:00 51°19.86 2°57.52 69.3 14.8 65 12.8
2003-06-24 07:15:04 51°19.87 2°57.54 68.9 14.9 65 12.7
2003-06-24 07:15:10 51°19.88 2°57.58 68.9 14.8 65 12.7
2003-06-24 07:15:16 51°19.89 2°57.62 69.1 14.7 65 12.7
2003-06-24 07:15:20 51°19.89 2°57.64 69.4 14.8 65 12.7
2003-06-24 07:15:30 51°19.91 2°57.7 68.7 14.9 65 12.6
2003-06-24 07:15:36 51°19.92 2°57.73 69.4 14.7 66 12.7
2003-06-24 07:15:40 51°19.93 2°57.76 69.9 14.8 66 12.6
2003-06-24 07:15:44 51°19.94 2°57.78 70 14.9 66 12.7
2003-06-24 07:15:50 51°19.95 2°57.82 69.5 14.9 66 12.7
2003-06-24 07:15:54 51°19.95 2°57.84 69.7 14.8 66 12.7
2003-06-24 07:16:00 51°19.96 2°57.88 70.8 14.8 67 12.7
2003-06-24 07:16:10 51°19.98 2°57.94 71.1 15 67 12.6
2003-06-24 07:16:16 51°19.99 2°57.98 70.8 14.8 67 12.6
2003-06-24 07:16:20 51°19.99 2°58 71 14.7 67 12.6
2003-06-24 07:16:24 51°20 2°58.02 71.6 14.7 68 12.6
2003-06-24 07:16:30 51°20.01 2°58.06 71.8 14.8 67 12.6
2003-06-24 07:16:36 51°20.02 2°58.1 71.3 14.9 67 12.6
2003-06-24 07:16:40 51°20.03 2°58.12 71.3 14.9 68 12.6
2003-06-24 07:16:50 51°20.04 2°58.18 71.8 14.9 68 12.7
2003-06-24 07:16:54 51°20.05 2°58.21 71.8 14.9 67 12.6
2003-06-24 07:17:00 51°20.06 2°58.24 71.8 14.9 68 12.6
2003-06-24 07:17:04 51°20.06 2°58.27 71.6 15 67 12.5
2003-06-24 07:17:10 51°20.07 2°58.3 70.7 15 67 12.5
2003-06-24 07:17:16 51°20.08 2°58.34 70.9 14.8 67 12.5
2003-06-24 07:17:20 51°20.09 2°58.37 71.9 14.9 68 12.5
2003-06-24 07:17:24 51°20.1 2°58.39 71.7 15 67 12.6
2003-06-24 07:17:30 51°20.11 2°58.43 71.7 15 68 12.5
2003-06-24 07:17:36 51°20.12 2°58.46 71.8 14.9 67 12.5
2003-06-24 07:17:40 51°20.12 2°58.49 71.6 14.8 68 12.5
2003-06-24 07:17:44 51°20.13 2°58.51 70.8 14.8 66 12.5
2003-06-24 07:17:50 51°20.14 2°58.55 70.9 14.8 67 12.5
2003-06-24 07:17:56 51°20.15 2°58.58 71.1 15 67 12.5
2003-06-24 07:18:00 51°20.15 2°58.61 71.3 14.9 67 12.4
2003-06-24 07:18:04 51°20.16 2°58.63 72.1 14.7 68 12.4
2003-06-24 07:18:10 51°20.17 2°58.67 72.2 14.8 67 12.4
2003-06-24 07:18:14 51°20.18 2°58.69 71.4 15 68 12.4
2003-06-24 07:18:20 51°20.19 2°58.73 71.3 14.9 67 12.4
2003-06-24 07:18:30 51°20.2 2°58.79 71.5 14.9 68 12.4
2003-06-24 07:18:36 51°20.21 2°58.83 71.7 15 67 12.3
2003-06-24 07:18:40 51°20.22 2°58.85 71.7 15 68 12.3
2003-06-24 07:18:44 51°20.22 2°58.88 72.3 15 68 12.4
2003-06-24 07:18:50 51°20.23 2°58.91 72.8 14.8 69 12.4
2003-06-24 07:18:56 51°20.24 2°58.95 74.1 14.8 70 12.4
2003-06-24 07:19:00 51°20.25 2°58.97 74.4 14.9 70 12.4
2003-06-24 07:19:10 51°20.26 2°59.04 73.7 15.1 69 12.3
2003-06-24 07:19:16 51°20.27 2°59.07 73.2 14.9 69 12.4
2003-06-24 07:19:20 51°20.28 2°59.1 73.1 14.8 69 12.4
2003-06-24 07:19:30 51°20.29 2°59.16 73.3 14.9 69 12.2
2003-06-24 07:19:36 51°20.3 2°59.2 72.6 14.9 68 12.3
2003-06-24 07:19:40 51°20.31 2°59.22 73 14.9 69 12.3
2003-06-24 07:19:44 51°20.31 2°59.25 73 14.8 68 12.3
2003-06-24 07:19:50 51°20.32 2°59.28 73.5 14.8 69 12.3
2003-06-24 07:19:56 51°20.33 2°59.32 73.7 14.7 69 12.3
2003-06-24 07:20:00 51°20.34 2°59.34 73.7 14.7 69 12.3
2003-06-24 07:20:10 51°20.35 2°59.4 73.2 14.9 69 12.2
2003-06-24 07:20:14 51°20.36 2°59.43 73.3 14.9 69 12.2
2003-06-24 07:20:20 51°20.37 2°59.47 73.3 14.8 69 12.2
2003-06-24 07:20:24 51°20.37 2°59.49 73.6 14.8 69 12.2
2003-06-24 07:20:30 51°20.38 2°59.53 74 14.8 70 12.2
2003-06-24 07:20:36 51°20.39 2°59.56 74.6 14.9 69 12.2
2003-06-24 07:20:40 51°20.39 2°59.59 74.2 14.9 70 12.2
2003-06-24 07:20:50 51°20.41 2°59.65 73.9 14.7 70 12.2
2003-06-24 07:20:56 51°20.42 2°59.69 74 14.9 69 12.2
2003-06-24 07:21:00 51°20.42 2°59.71 73.9 15 70 12.2
2003-06-24 07:21:04 51°20.43 2°59.74 73.4 15 69 12.2
2003-06-24 07:21:10 51°20.44 2°59.77 73.7 14.9 70 12.2
2003-06-24 07:21:14 51°20.44 2°59.8 73.7 14.9 69 12.2
2003-06-24 07:21:20 51°20.45 2°59.84 74 14.9 70 12.1
2003-06-24 07:21:30 51°20.47 2°59.9 73.3 14.8 69 12.1
2003-06-24 07:21:36 51°20.48 2°59.93 73.3 14.8 69 12.1
2003-06-24 07:21:40 51°20.48 2°59.96 73.3 14.8 69 12.2
2003-06-24 07:21:44 51°20.49 2°59.98 73.7 14.9 69 12.1
2003-06-24 07:21:50 51°20.5 3°0.02 73.7 14.9 69 12.1
2003-06-24 07:21:56 51°20.51 3°0.06 73.4 14.9 69 12.1
2003-06-24 07:22:00 51°20.51 3°0.08 73.5 14.8 69 12.1
2003-06-24 07:22:04 51°20.52 3°0.11 73.6 14.8 69 12.1
2003-06-24 07:22:10 51°20.53 3°0.14 73.7 14.9 70 12.1
2003-06-24 07:22:14 51°20.53 3°0.17 73.8 14.8 70 12
2003-06-24 07:22:20 51°20.54 3°0.21 73.8 14.9 70 12.1
2003-06-24 07:22:30 51°20.56 3°0.27 73.9 14.9 69 12.1
2003-06-24 07:22:36 51°20.56 3°0.3 73.1 15 69 12.1
2003-06-24 07:22:40 51°20.57 3°0.33 73.1 14.9 68 12.1
2003-06-24 07:22:44 51°20.58 3°0.35 73.9 14.9 70 12.1
2003-06-24 07:22:50 51°20.58 3°0.39 73.9 14.9 69 12
2003-06-24 07:22:56 51°20.59 3°0.43 74.2 14.9 70 12
2003-06-24 07:23:00 51°20.6 3°0.45 74 15 69 12
2003-06-24 07:23:10 51°20.61 3°0.51 73.2 14.9 69 12
2003-06-24 07:23:14 51°20.62 3°0.54 73.3 14.9 69 12
2003-06-24 07:23:20 51°20.63 3°0.58 73.2 14.9 69 12.1
2003-06-24 07:23:24 51°20.64 3°0.6 73 14.9 69 12
2003-06-24 07:23:30 51°20.64 3°0.64 72.9 14.9 68 12
2003-06-24 07:23:36 51°20.65 3°0.67 73.3 15 69 12
2003-06-24 07:23:40 51°20.66 3°0.7 73.4 15.1 69 12
2003-06-24 07:23:50 51°20.67 3°0.76 73.8 15 69 12
2003-06-24 07:23:56 51°20.68 3°0.8 74 14.9 70 12
2003-06-24 07:24:00 51°20.69 3°0.82 74.1 15 69 12
2003-06-24 07:24:10 51°20.7 3°0.88 73.2 14.9 69 12
2003-06-24 07:24:16 51°20.71 3°0.92 73.4 14.9 69 12
2003-06-24 07:24:20 51°20.72 3°0.95 73.3 14.9 69 12
2003-06-24 07:24:24 51°20.72 3°0.97 73.9 14.8 69 12
2003-06-24 07:24:30 51°20.73 3°1.01 74 15 70 11.9
2003-06-24 07:24:36 51°20.74 3°1.05 73.3 14.9 69 12
2003-06-24 07:24:40 51°20.75 3°1.07 73.4 14.9 70 12
2003-06-24 07:24:50 51°20.76 3°1.13 73.3 15.1 69 11.9
2003-06-24 07:24:56 51°20.77 3°1.17 73 15 68 12
2003-06-24 07:25:00 51°20.78 3°1.19 73 14.9 69 12
2003-06-24 07:25:04 51°20.78 3°1.22 73 14.8 68 12
2003-06-24 07:25:10 51°20.79 3°1.26 73 14.9 69 12
2003-06-24 07:25:16 51°20.8 3°1.29 72 15 67 12
2003-06-24 07:25:20 51°20.81 3°1.32 71.9 14.9 69 12
2003-06-24 07:25:30 51°20.82 3°1.38 73.2 14.8 70 12
2003-06-24 07:25:36 51°20.83 3°1.42 73.5 14.9 69 11.9
2003-06-24 07:25:40 51°20.84 3°1.44 73.7 15 70 12
2003-06-24 07:25:44 51°20.84 3°1.46 73.4 14.9 69 12
2003-06-24 07:25:50 51°20.85 3°1.5 74 14.8 70 12
2003-06-24 07:25:54 51°20.86 3°1.53 74.6 14.9 70 12
2003-06-24 07:26:00 51°20.87 3°1.56 74.1 15 70 12
2003-06-24 07:26:04 51°20.87 3°1.59 73.3 15 69 12
2003-06-24 07:26:10 51°20.88 3°1.63 73.7 14.8 70 12
2003-06-24 07:26:16 51°20.89 3°1.66 74 14.9 69 12
2003-06-24 07:26:20 51°20.89 3°1.69 73.9 14.9 70 12
2003-06-24 07:26:30 51°20.91 3°1.75 73.3 15 69 12.1
2003-06-24 07:26:36 51°20.92 3°1.79 72.8 14.9 69 12.1
2003-06-24 07:26:40 51°20.92 3°1.81 73.5 14.9 69 12.2
2003-06-24 07:26:44 51°20.93 3°1.84 73.7 14.9 69 12.2
2003-06-24 07:26:50 51°20.94 3°1.87 73.7 14.9 70 12.1
2003-06-24 07:26:54 51°20.95 3°1.9 74 15 69 12.1
2003-06-24 07:27:00 51°20.95 3°1.93 73.5 15 69 12.1
2003-06-24 07:27:10 51°20.97 3°2 72.6 15 68 12.2
2003-06-24 07:27:16 51°20.98 3°2.03 73 14.9 69 12.2
2003-06-24 07:27:20 51°20.98 3°2.06 73.4 14.9 69 12.2
2003-06-24 07:27:24 51°20.99 3°2.08 73.4 14.9 69 12.2
2003-06-24 07:27:30 51°21 3°2.12 73.7 15.1 69 12.2
2003-06-24 07:27:36 51°21.01 3°2.16 72.8 15 69 12.2
2003-06-24 07:27:40 51°21.01 3°2.18 72.8 14.9 68 12.3
2003-06-24 07:27:50 51°21.03 3°2.24 73.4 15 68 12.3
2003-06-24 07:27:56 51°21.04 3°2.28 74 15.1 70 12.3
2003-06-24 07:28:00 51°21.04 3°2.31 73.5 15.1 68 12.3
2003-06-24 07:28:04 51°21.05 3°2.33 73.3 15.1 69 12.4
2003-06-24 07:28:10 51°21.06 3°2.37 72.8 15 67 12.3
2003-06-24 07:28:16 51°21.07 3°2.41 72.9 15 69 12.4
2003-06-24 07:28:20 51°21.08 3°2.43 73.5 15 69 12.3
2003-06-24 07:28:24 51°21.08 3°2.46 73.6 15 69 12.4
2003-06-24 07:28:30 51°21.09 3°2.49 73.7 14.9 69 12.4
2003-06-24 07:28:36 51°21.1 3°2.53 74 15.1 69 12.4
2003-06-24 07:28:40 51°21.11 3°2.55 73.2 15.2 68 12.3
2003-06-24 07:28:44 51°21.11 3°2.58 72.9 15.1 69 12.4
2003-06-24 07:28:50 51°21.12 3°2.62 73.4 15 69 12.4
2003-06-24 07:28:56 51°21.13 3°2.65 73.7 15 69 12.4
2003-06-24 07:29:00 51°21.13 3°2.68 74.5 15 71 12.4
2003-06-24 07:29:04 51°21.14 3°2.7 74.4 15 69 12.4
2003-06-24 07:29:10 51°21.15 3°2.74 74.4 15 70 12.4
2003-06-24 07:29:14 51°21.16 3°2.77 73.8 15 69 12.4
2003-06-24 07:29:20 51°21.16 3°2.8 73.8 15 70 12.4
2003-06-24 07:29:30 51°21.18 3°2.87 73.6 15.1 69 12.4
2003-06-24 07:29:36 51°21.19 3°2.9 73.2 15.1 68 12.4
2003-06-24 07:29:40 51°21.19 3°2.93 72.7 15.1 68 12.4
2003-06-24 07:29:44 51°21.2 3°2.95 72.7 15 68 12.4
2003-06-24 07:29:50 51°21.21 3°2.99 73 15 69 12.5
2003-06-24 07:29:56 51°21.22 3°3.03 73.6 15.1 69 12.5
2003-06-24 07:30:00 51°21.22 3°3.05 74.3 15 70 12.5
2003-06-24 07:30:10 51°21.24 3°3.12 76.3 15 72 12.4
2003-06-24 07:30:16 51°21.24 3°3.15 76.6 15 72 12.5
2003-06-24 07:30:20 51°21.25 3°3.18 77.3 15.1 73 12.4
2003-06-24 07:30:24 51°21.25 3°3.21 77.7 15.1 73 12.5
2003-06-24 07:30:30 51°21.26 3°3.24 77.6 15.1 73 12.5
2003-06-24 07:30:36 51°21.27 3°3.28 77.5 15 73 12.5
2003-06-24 07:30:40 51°21.27 3°3.31 77.5 15 73 12.5
2003-06-24 07:30:44 51°21.28 3°3.33 77.6 15.1 74 12.5
2003-06-24 07:30:50 51°21.29 3°3.37 77.6 15 73 12.5
2003-06-24 07:30:56 51°21.29 3°3.41 78.3 15 74 12.5
2003-06-24 07:31:00 51°21.3 3°3.44 77.8 15.1 72 12.5
2003-06-24 07:31:10 51°21.31 3°3.5 77.3 14.9 73 12.6
2003-06-24 07:31:16 51°21.32 3°3.54 77 15 72 12.6
2003-06-24 07:31:20 51°21.32 3°3.56 76.8 15 72 12.5
2003-06-24 07:31:24 51°21.33 3°3.59 77.2 15.1 73 12.5
2003-06-24 07:31:28 51°21.33 3°3.61 77.3 15 72 12.5
2003-06-24 07:31:36 51°21.34 3°3.66 77.2 15 73 12.5
2003-06-24 07:31:40 51°21.35 3°3.69 77.2 15 72 12.5
2003-06-24 07:31:44 51°21.35 3°3.72 77.6 15.1 73 12.5
2003-06-24 07:31:50 51°21.36 3°3.75 77.4 15.1 73 12.5
2003-06-24 07:31:56 51°21.37 3°3.79 77.5 15.1 73 12.5
2003-06-24 07:32:00 51°21.37 3°3.82 77.5 15.1 73 12.5
2003-06-24 07:32:04 51°21.38 3°3.84 77.6 15 73 12.5
2003-06-24 07:32:10 51°21.38 3°3.88 77.6 15 73 12.6
2003-06-24 07:32:14 51°21.39 3°3.91 77.7 15.1 73 12.5
2003-06-24 07:32:20 51°21.4 3°3.94 77.9 15.1 73 12.5
2003-06-24 07:32:24 51°21.4 3°3.97 77.6 15.1 73 12.5
2003-06-24 07:32:30 51°21.41 3°4.01 77.6 15 73 12.5
2003-06-24 07:32:36 51°21.42 3°4.05 77.1 15.1 72 12.5
2003-06-24 07:32:40 51°21.42 3°4.07 76.8 15.1 72 12.5
2003-06-24 07:32:44 51°21.43 3°4.1 76.9 15 73 12.6
2003-06-24 07:32:50 51°21.43 3°4.14 77.5 15 73 12.5
2003-06-24 07:32:56 51°21.44 3°4.17 77.6 15.1 73 12.5
2003-06-24 07:33:00 51°21.44 3°4.2 77.6 15.1 73 12.5
2003-06-24 07:33:04 51°21.45 3°4.22 77.1 15.1 72 12.5
2003-06-24 07:33:10 51°21.46 3°4.26 77.6 15.1 74 12.5
2003-06-24 07:33:16 51°21.46 3°4.3 77.7 15.1 74 12.4
2003-06-24 07:33:20 51°21.47 3°4.33 78 15.1 74 12.5
2003-06-24 07:33:30 51°21.48 3°4.39 77.2 15.1 73 12.5
2003-06-24 07:33:34 51°21.49 3°4.42 76.9 15 72 12.6
2003-06-24 07:33:40 51°21.49 3°4.46 76.8 15.1 73 12.6
2003-06-24 07:33:44 51°21.5 3°4.48 76.7 15.1 72 12.5
2003-06-24 07:33:48 51°21.5 3°4.51 77 15.2 73 12.5
2003-06-24 07:33:56 51°21.51 3°4.56 77.1 15.2 73 12.6
2003-06-24 07:34:00 51°21.52 3°4.58 76.6 15.1 72 12.7
2003-06-24 07:34:04 51°21.52 3°4.61 76.8 15.1 73 12.6
2003-06-24 07:34:10 51°21.53 3°4.65 76.6 15.1 72 12.7
2003-06-24 07:34:16 51°21.54 3°4.69 76.6 15.2 72 12.6
2003-06-24 07:34:20 51°21.54 3°4.71 76.9 15.2 73 12.7
2003-06-24 07:34:24 51°21.55 3°4.74 77.1 15.2 73 12.8
2003-06-24 07:34:30 51°21.56 3°4.78 77.1 15.2 73 12.7
2003-06-24 07:34:34 51°21.56 3°4.8 77.2 15.2 73 12.8
2003-06-24 07:34:40 51°21.57 3°4.84 77.2 15.2 73 12.7
2003-06-24 07:34:44 51°21.57 3°4.87 76.6 15.2 72 12.8
2003-06-24 07:34:48 51°21.58 3°4.89 76.2 15.2 73 12.7
2003-06-24 07:34:56 51°21.59 3°4.94 76.7 15.3 73 12.7
2003-06-24 07:35:00 51°21.59 3°4.97 77.3 15.3 73 12.8
2003-06-24 07:35:04 51°21.6 3°5 77.3 15.2 73 12.8
2003-06-24 07:35:10 51°21.61 3°5.03 77.6 15.2 74 12.8
2003-06-24 07:35:16 51°21.61 3°5.07 77.6 15.2 74 12.8
2003-06-24 07:35:20 51°21.62 3°5.1 77.5 15.2 73 12.7
2003-06-24 07:35:24 51°21.62 3°5.12 77.5 15.1 73 12.8
2003-06-24 07:35:30 51°21.63 3°5.16 77.4 15.2 73 12.8
2003-06-24 07:35:34 51°21.64 3°5.19 77.3 15.2 74 12.8
2003-06-24 07:35:40 51°21.64 3°5.23 77 15.2 72 12.8
2003-06-24 07:35:48 51°21.65 3°5.28 77.1 15.2 72 12.7
2003-06-24 07:35:56 51°21.66 3°5.33 76.9 15.2 73 12.7
2003-06-24 07:36:00 51°21.67 3°5.36 77 15.2 73 12.7
2003-06-24 07:36:04 51°21.67 3°5.38 77.5 15.2 74 12.7
2003-06-24 07:36:10 51°21.68 3°5.42 77.4 15.2 73 12.7
2003-06-24 07:36:16 51°21.69 3°5.46 77.4 15.2 73 12.7
2003-06-24 07:36:20 51°21.69 3°5.49 77.6 15.2 74 12.8
2003-06-24 07:36:30 51°21.7 3°5.55 77.7 15.2 73 12.7
2003-06-24 07:36:36 51°21.71 3°5.59 77.3 15.2 73 12.7
2003-06-24 07:36:40 51°21.72 3°5.61 76.9 15.2 73 12.7
2003-06-24 07:36:44 51°21.72 3°5.64 76.9 15.2 73 12.8
2003-06-24 07:36:48 51°21.72 3°5.67 77.6 15.1 74 12.9
2003-06-24 07:36:56 51°21.73 3°5.72 77.9 15.1 74 12.8
2003-06-24 07:37:00 51°21.74 3°5.74 78.7 15.2 75 12.8
2003-06-24 07:37:04 51°21.74 3°5.77 78.7 15.2 74 12.9
2003-06-24 07:37:10 51°21.75 3°5.81 78.8 15 75 12.9
2003-06-24 07:37:16 51°21.76 3°5.85 79.6 14.9 75 12.9
2003-06-24 07:37:20 51°21.76 3°5.87 79.5 15 76 12.9
2003-06-24 07:37:30 51°21.77 3°5.94 79.4 15.3 76 12.9
2003-06-24 07:37:34 51°21.77 3°5.96 79.1 15.1 75 12.9
2003-06-24 07:37:40 51°21.78 3°6 79.1 15 75 13
2003-06-24 07:37:44 51°21.78 3°6.03 78.7 15 75 13
2003-06-24 07:37:48 51°21.79 3°6.05 79.2 15.1 75 13
2003-06-24 07:37:56 51°21.8 3°6.11 79.5 15.2 75 13
2003-06-24 07:38:00 51°21.8 3°6.13 79.6 15.2 75 13
2003-06-24 07:38:04 51°21.81 3°6.16 80.5 15.2 77 13
2003-06-24 07:38:10 51°21.81 3°6.2 80.9 15.1 77 13
2003-06-24 07:38:16 51°21.82 3°6.24 81.6 15.1 77 13
2003-06-24 07:38:20 51°21.82 3°6.26 81.7 15.1 77 13
2003-06-24 07:38:24 51°21.83 3°6.29 81.2 15.1 77 13
2003-06-24 07:38:30 51°21.83 3°6.33 81.3 15 77 13.1
2003-06-24 07:38:34 51°21.83 3°6.35 81.2 15.1 77 13.1
2003-06-24 07:38:40 51°21.84 3°6.39 81.2 15.1 77 13.1
2003-06-24 07:38:44 51°21.84 3°6.42 81.1 15 77 13.1
2003-06-24 07:38:48 51°21.85 3°6.44 81.2 15 77 13.2
2003-06-24 07:38:56 51°21.86 3°6.5 81.4 15.1 77 13.1
2003-06-24 07:39:00 51°21.86 3°6.52 81.1 15 77 13.1
2003-06-24 07:39:04 51°21.86 3°6.55 81.3 15 77 13.1
2003-06-24 07:39:10 51°21.87 3°6.59 81.2 15 77 13.2
2003-06-24 07:39:16 51°21.87 3°6.63 81.6 15 78 13.2
2003-06-24 07:39:20 51°21.88 3°6.65 81.9 15.1 78 13.2
2003-06-24 07:39:24 51°21.88 3°6.68 81.7 15.1 77 13.2
2003-06-24 07:39:30 51°21.89 3°6.72 81.7 15.2 78 13.2
2003-06-24 07:39:34 51°21.89 3°6.74 81.2 15.2 77 13.2
2003-06-24 07:39:40 51°21.9 3°6.78 81 15.2 77 13.2
2003-06-24 07:39:48 51°21.9 3°6.84 81.1 15.2 77 13.3
2003-06-24 07:39:56 51°21.91 3°6.89 80.7 15.2 77 13.2
2003-06-24 07:40:00 51°21.92 3°6.91 80.9 15.1 77 13.2
2003-06-24 07:40:04 51°21.92 3°6.94 81.2 15.2 78 13.3
2003-06-24 07:40:10 51°21.92 3°6.98 81.6 15.1 77 13.2
2003-06-24 07:40:16 51°21.93 3°7.02 81.8 15.1 78 13.3
2003-06-24 07:40:20 51°21.93 3°7.05 82 15.2 78 13.3
2003-06-24 07:40:24 51°21.94 3°7.07 81 15.3 77 13.3
2003-06-24 07:40:28 51°21.94 3°7.1 80.5 15.3 77 13.3
2003-06-24 07:40:36 51°21.95 3°7.15 81.1 15.2 77 13.4
2003-06-24 07:40:40 51°21.95 3°7.18 81.2 15.3 77 13.4
2003-06-24 07:40:44 51°21.96 3°7.2 81.4 15.2 78 13.4
2003-06-24 07:40:50 51°21.96 3°7.24 81.5 15.2 77 13.4
2003-06-24 07:40:54 51°21.97 3°7.27 81 15.3 76 13.4
2003-06-24 07:41:00 51°21.97 3°7.31 80.9 15.3 78 13.4
2003-06-24 07:41:04 51°21.98 3°7.34 81.2 15.4 77 13.5
2003-06-24 07:41:08 51°21.98 3°7.36 81.3 15.3 78 13.5
2003-06-24 07:41:16 51°21.99 3°7.42 81.1 15.2 77 13.5
2003-06-24 07:41:20 51°21.99 3°7.44 80.9 15.3 77 13.5
2003-06-24 07:41:24 51°21.99 3°7.47 81.1 15.3 77 13.5
2003-06-24 07:41:30 51°22 3°7.51 81.4 15.3 78 13.6
2003-06-24 07:41:34 51°22 3°7.53 81.4 15.3 77 13.5
2003-06-24 07:41:40 51°22.01 3°7.57 81.6 15.2 78 13.6
2003-06-24 07:41:44 51°22.01 3°7.6 81.7 15.2 78 13.6
2003-06-24 07:41:48 51°22.02 3°7.63 81.7 15.2 78 13.5
2003-06-24 07:41:56 51°22.02 3°7.68 81.3 15.3 77 13.5
2003-06-24 07:42:00 51°22.03 3°7.71 80.6 15.2 77 13.5
2003-06-24 07:42:04 51°22.03 3°7.73 80.5 15.1 77 13.5
2003-06-24 07:42:10 51°22.04 3°7.77 81.2 15.2 78 13.5
2003-06-24 07:42:16 51°22.04 3°7.81 81 15.4 77 13.5
2003-06-24 07:42:20 51°22.05 3°7.84 81.3 15.3 78 13.5
2003-06-24 07:42:24 51°22.05 3°7.86 81.3 15.3 77 13.6
2003-06-24 07:42:30 51°22.05 3°7.9 81.7 15.2 79 13.5
2003-06-24 07:42:34 51°22.06 3°7.93 81.8 15.3 78 13.6
2003-06-24 07:42:40 51°22.06 3°7.97 81.4 15.3 78 13.5
2003-06-24 07:42:48 51°22.07 3°8.02 81 15.3 77 13.5
2003-06-24 07:42:56 51°22.08 3°8.08 80.9 15.4 78 13.5
2003-06-24 07:43:00 51°22.08 3°8.1 81.2 15.4 77 13.6
2003-06-24 07:43:04 51°22.09 3°8.13 81.1 15.3 77 13.5
2003-06-24 07:43:10 51°22.09 3°8.17 81.3 15.4 78 13.6
2003-06-24 07:43:16 51°22.1 3°8.21 81.1 15.4 77 13.6
2003-06-24 07:43:20 51°22.1 3°8.23 81.2 15.4 78 13.7
2003-06-24 07:43:24 51°22.1 3°8.26 81.9 15.4 77 13.7
2003-06-24 07:43:30 51°22.11 3°8.3 82.6 15.4 79 13.8
2003-06-24 07:43:36 51°22.11 3°8.34 82.7 15.5 78 13.7
2003-06-24 07:43:40 51°22.12 3°8.37 82.5 15.6 79 13.7
2003-06-24 07:43:44 51°22.12 3°8.4 81.8 15.5 78 13.7
2003-06-24 07:43:48 51°22.12 3°8.42 82.5 15.4 80 13.8
2003-06-24 07:43:56 51°22.13 3°8.48 82.3 15.4 78 13.8
2003-06-24 07:44:00 51°22.13 3°8.5 82.4 15.4 79 13.8
2003-06-24 07:44:04 51°22.14 3°8.53 82.7 15.5 78 13.8
2003-06-24 07:44:10 51°22.14 3°8.57 82 15.5 78 13.8
2003-06-24 07:44:22 51°22.15 3°8.65 82.7 15.3 79 13.9
2003-06-24 07:44:28 51°22.16 3°8.69 82.5 15.5 78 13.9
2003-06-24 07:44:32 51°22.16 3°8.72 82.2 15.6 78 13.9
2003-06-24 07:44:36 51°22.17 3°8.74 82.3 15.6 79 14
2003-06-24 07:44:40 51°22.17 3°8.77 82.4 15.6 79 14
2003-06-24 07:44:44 51°22.17 3°8.8 82.1 15.4 78 14
2003-06-24 07:44:52 51°22.18 3°8.85 81.8 15.3 78 14
2003-06-24 07:44:56 51°22.18 3°8.88 82 15.3 78 14
2003-06-24 07:45:00 51°22.19 3°8.91 82 15.5 78 14.1
2003-06-24 07:45:10 51°22.2 3°8.97 81.6 15.4 77 14.1
2003-06-24 07:45:16 51°22.2 3°9.01 82.7 15.2 80 14.1
2003-06-24 07:45:20 51°22.2 3°9.04 82.4 15.3 77 14.2
2003-06-24 07:45:24 51°22.21 3°9.07 82 15.4 78 14.1
2003-06-24 07:45:30 51°22.21 3°9.11 82.7 15.4 79 14.3
2003-06-24 07:45:36 51°22.22 3°9.15 82.3 15.4 78 14.3
2003-06-24 07:45:40 51°22.22 3°9.17 81.4 15.4 77 14.3
2003-06-24 07:45:44 51°22.23 3°9.2 81.3 15.4 77 14.4
2003-06-24 07:45:50 51°22.23 3°9.24 81.5 15.4 78 14.4
2003-06-24 07:45:56 51°22.24 3°9.28 82.3 15.4 78 14.5
2003-06-24 07:46:00 51°22.24 3°9.31 82.3 15.4 78 14.5
2003-06-24 07:46:04 51°22.24 3°9.33 82.3 15.4 79 14.5
2003-06-24 07:46:10 51°22.25 3°9.37 81.8 15.4 77 14.5
2003-06-24 07:46:14 51°22.25 3°9.4 82.1 15.4 79 14.6
2003-06-24 07:46:20 51°22.26 3°9.44 82.6 15.4 79 14.7
2003-06-24 07:46:24 51°22.26 3°9.47 82.1 15.4 78 14.7
2003-06-24 07:46:28 51°22.26 3°9.49 82.5 15.5 79 14.8
2003-06-24 07:46:36 51°22.27 3°9.55 82 15.5 78 14.8
2003-06-24 07:46:40 51°22.27 3°9.57 82.5 15.5 80 14.8
2003-06-24 07:46:44 51°22.28 3°9.6 82.5 15.5 78 14.9
2003-06-24 07:46:50 51°22.28 3°9.64 82.1 15.5 79 14.9
2003-06-24 07:46:56 51°22.29 3°9.68 82.4 15.6 78 14.9
2003-06-24 07:47:00 51°22.29 3°9.71 81.9 15.6 78 15
2003-06-24 07:47:04 51°22.29 3°9.74 82.1 15.5 79 15.1
2003-06-24 07:47:10 51°22.3 3°9.78 82.1 15.5 78 15.1
2003-06-24 07:47:14 51°22.3 3°9.8 82.4 15.6 79 15.1
2003-06-24 07:47:20 51°22.31 3°9.84 82.3 15.7 78 15.1
2003-06-24 07:47:24 51°22.31 3°9.87 82.2 15.7 78 15.2
2003-06-24 07:47:28 51°22.32 3°9.9 82.7 15.6 79 15.4
2003-06-24 07:47:36 51°22.32 3°9.95 82.8 15.5 79 15.4
2003-06-24 07:47:40 51°22.32 3°9.98 83 15.5 79 15.4
2003-06-24 07:47:44 51°22.33 3°10.01 83 15.5 79 15.5
2003-06-24 07:47:50 51°22.33 3°10.05 82.7 15.5 78 15.6
2003-06-24 07:47:56 51°22.34 3°10.09 81.7 15.6 78 15.5
2003-06-24 07:48:00 51°22.34 3°10.12 82 15.6 79 15.6
2003-06-24 07:48:04 51°22.35 3°10.14 82.5 15.6 78 15.6
2003-06-24 07:48:10 51°22.35 3°10.18 82.5 15.5 79 15.8
2003-06-24 07:48:16 51°22.36 3°10.22 82 15.6 78 16.2
2003-06-24 07:48:20 51°22.36 3°10.25 82.1 15.6 78 16.4
2003-06-24 07:48:28 51°22.37 3°10.31 82.8 15.6 78 17.1
2003-06-24 07:48:36 51°22.37 3°10.36 82.7 15.5 79 19.5
2003-06-24 07:48:40 51°22.38 3°10.39 82.4 15.5 79 19.6
2003-06-24 07:48:44 51°22.38 3°10.41 82.7 15.6 79 19.6
2003-06-24 07:48:50 51°22.38 3°10.45 83.2 15.5 79 19.9
2003-06-24 07:48:56 51°22.39 3°10.49 83 15.5 79 19.5
2003-06-24 07:49:00 51°22.39 3°10.52 82.7 15.5 79 19.7
2003-06-24 07:49:10 51°22.4 3°10.59 82.7 15.5 79 19.8
2003-06-24 07:49:16 51°22.41 3°10.63 82.7 15.4 79 19.7
2003-06-24 07:49:20 51°22.41 3°10.66 82.1 15.4 78 18.6
2003-06-24 07:49:24 51°22.41 3°10.68 82 15.4 79 18
2003-06-24 07:49:28 51°22.42 3°10.71 82 15.5 78 17.9
2003-06-24 07:49:36 51°22.42 3°10.76 81.7 15.4 78 17.7
2003-06-24 07:49:40 51°22.43 3°10.79 82 15.4 78 17.6
2003-06-24 07:49:44 51°22.43 3°10.82 82.7 15.4 80 17.4
2003-06-24 07:49:50 51°22.44 3°10.86 82 15.6 78 17.2
2003-06-24 07:49:56 51°22.44 3°10.9 82.3 15.5 79 17.1
2003-06-24 07:50:00 51°22.44 3°10.92 82 15.5 78 17.1
2003-06-24 07:50:04 51°22.45 3°10.95 82.4 15.6 79 17
2003-06-24 07:50:10 51°22.45 3°10.99 82.1 15.5 78 17.1
2003-06-24 07:50:14 51°22.46 3°11.02 82.5 15.5 79 17.1
2003-06-24 07:50:20 51°22.46 3°11.06 82.3 15.5 78 17.1
2003-06-24 07:50:24 51°22.46 3°11.09 83.1 15.5 80 17.1
2003-06-24 07:50:28 51°22.47 3°11.11 83.5 15.6 79 17.1
2003-06-24 07:50:36 51°22.47 3°11.17 83.7 15.7 80 17.1
2003-06-24 07:50:40 51°22.48 3°11.2 83.4 15.7 79 17.1
2003-06-24 07:50:44 51°22.48 3°11.22 82.8 15.6 79 17.2
2003-06-24 07:50:50 51°22.48 3°11.26 82.8 15.6 79 17.2
2003-06-24 07:50:56 51°22.49 3°11.3 82.8 15.7 79 17.1
2003-06-24 07:51:00 51°22.49 3°11.33 82.3 15.7 78 17.1
2003-06-24 07:51:04 51°22.5 3°11.36 82.3 15.8 79 17.1
2003-06-24 07:51:10 51°22.5 3°11.4 82.4 15.6 78 17.1
2003-06-24 07:51:14 51°22.51 3°11.43 83.3 15.6 79 17.1
2003-06-24 07:51:20 51°22.51 3°11.47 83.6 15.6 79 16.9
2003-06-24 07:51:28 51°22.52 3°11.52 82.8 15.8 79 16.8